sensor_id;sensor_type;location;lat;lon;timestamp;pressure;altitude;pressure_sealevel;temperature
45393;BMP280;31129;44.810;10.334;2023-07-22T00:01:00;100312.97;;;27.25
45393;BMP280;31129;44.810;10.334;2023-07-22T00:03:25;100311.50;;;27.67
45393;BMP280;31129;44.810;10.334;2023-07-22T00:06:05;100325.47;;;27.34
45393;BMP280;31129;44.810;10.334;2023-07-22T00:08:32;100320.78;;;26.75
45393;BMP280;31129;44.810;10.334;2023-07-22T00:10:57;100317.25;;;26.14
45393;BMP280;31129;44.810;10.334;2023-07-22T00:13:23;100324.34;;;26.06
45393;BMP280;31129;44.810;10.334;2023-07-22T00:15:48;100318.31;;;25.90
45393;BMP280;31129;44.810;10.334;2023-07-22T00:18:15;100324.31;;;26.15
45393;BMP280;31129;44.810;10.334;2023-07-22T00:20:41;100309.22;;;26.49
45393;BMP280;31129;44.810;10.334;2023-07-22T00:23:07;100314.28;;;26.72
45393;BMP280;31129;44.810;10.334;2023-07-22T00:25:32;100304.97;;;26.79
45393;BMP280;31129;44.810;10.334;2023-07-22T00:27:58;100298.88;;;26.83
45393;BMP280;31129;44.810;10.334;2023-07-22T00:30:23;100300.75;;;26.68
45393;BMP280;31129;44.810;10.334;2023-07-22T00:32:49;100298.72;;;26.59
45393;BMP280;31129;44.810;10.334;2023-07-22T00:35:14;100299.50;;;26.81
45393;BMP280;31129;44.810;10.334;2023-07-22T00:37:40;100303.16;;;26.84
45393;BMP280;31129;44.810;10.334;2023-07-22T00:40:05;100301.34;;;26.98
45393;BMP280;31129;44.810;10.334;2023-07-22T00:42:37;100295.56;;;26.75
45393;BMP280;31129;44.810;10.334;2023-07-22T00:45:03;100300.25;;;26.82
45393;BMP280;31129;44.810;10.334;2023-07-22T00:47:29;100305.94;;;26.93
45393;BMP280;31129;44.810;10.334;2023-07-22T00:49:54;100303.41;;;26.97
45393;BMP280;31129;44.810;10.334;2023-07-22T00:52:21;100309.34;;;27.13
45393;BMP280;31129;44.810;10.334;2023-07-22T00:54:47;100306.75;;;27.05
45393;BMP280;31129;44.810;10.334;2023-07-22T00:57:12;100290.50;;;26.83
45393;BMP280;31129;44.810;10.334;2023-07-22T00:59:39;100287.69;;;26.83
45393;BMP280;31129;44.810;10.334;2023-07-22T01:02:05;100273.84;;;26.85
45393;BMP280;31129;44.810;10.334;2023-07-22T01:04:33;100275.97;;;26.75
45393;BMP280;31129;44.810;10.334;2023-07-22T01:06:59;100276.59;;;26.63
45393;BMP280;31129;44.810;10.334;2023-07-22T01:09:26;100275.28;;;26.86
45393;BMP280;31129;44.810;10.334;2023-07-22T01:11:52;100265.75;;;26.79
45393;BMP280;31129;44.810;10.334;2023-07-22T01:14:17;100266.47;;;26.80
45393;BMP280;31129;44.810;10.334;2023-07-22T01:16:43;100262.34;;;26.81
45393;BMP280;31129;44.810;10.334;2023-07-22T01:19:09;100274.09;;;26.89
45393;BMP280;31129;44.810;10.334;2023-07-22T01:21:36;100279.13;;;26.90
45393;BMP280;31129;44.810;10.334;2023-07-22T01:24:02;100276.53;;;26.73
45393;BMP280;31129;44.810;10.334;2023-07-22T01:26:28;100278.44;;;26.49
45393;BMP280;31129;44.810;10.334;2023-07-22T01:29:02;100275.84;;;26.32
45393;BMP280;31129;44.810;10.334;2023-07-22T01:31:28;100282.31;;;26.75
45393;BMP280;31129;44.810;10.334;2023-07-22T01:33:53;100271.31;;;26.58
45393;BMP280;31129;44.810;10.334;2023-07-22T01:36:19;100273.34;;;26.17
45393;BMP280;31129;44.810;10.334;2023-07-22T01:38:44;100280.78;;;26.43
45393;BMP280;31129;44.810;10.334;2023-07-22T01:41:11;100272.19;;;26.60
45393;BMP280;31129;44.810;10.334;2023-07-22T01:43:36;100283.84;;;26.57
45393;BMP280;31129;44.810;10.334;2023-07-22T01:46:01;100286.09;;;26.49
45393;BMP280;31129;44.810;10.334;2023-07-22T01:48:27;100288.97;;;26.10
45393;BMP280;31129;44.810;10.334;2023-07-22T01:50:53;100290.34;;;26.50
45393;BMP280;31129;44.810;10.334;2023-07-22T01:53:18;100295.59;;;26.65
45393;BMP280;31129;44.810;10.334;2023-07-22T01:55:44;100288.06;;;26.27
45393;BMP280;31129;44.810;10.334;2023-07-22T01:58:10;100298.88;;;25.92
45393;BMP280;31129;44.810;10.334;2023-07-22T02:00:35;100307.69;;;26.08
45393;BMP280;31129;44.810;10.334;2023-07-22T02:03:00;100302.53;;;26.04
45393;BMP280;31129;44.810;10.334;2023-07-22T02:05:26;100307.53;;;26.15
45393;BMP280;31129;44.810;10.334;2023-07-22T02:07:53;100309.44;;;25.94
45393;BMP280;31129;44.810;10.334;2023-07-22T02:10:20;100316.25;;;26.00
45393;BMP280;31129;44.810;10.334;2023-07-22T02:12:46;100318.75;;;25.96
45393;BMP280;31129;44.810;10.334;2023-07-22T02:15:12;100315.06;;;26.03
45393;BMP280;31129;44.810;10.334;2023-07-22T02:17:37;100324.16;;;25.94
45393;BMP280;31129;44.810;10.334;2023-07-22T02:20:03;100328.03;;;25.99
45393;BMP280;31129;44.810;10.334;2023-07-22T02:22:30;100326.53;;;25.88
45393;BMP280;31129;44.810;10.334;2023-07-22T02:24:55;100328.44;;;26.05
45393;BMP280;31129;44.810;10.334;2023-07-22T02:27:21;100331.41;;;26.07
45393;BMP280;31129;44.810;10.334;2023-07-22T02:29:46;100342.31;;;26.12
45393;BMP280;31129;44.810;10.334;2023-07-22T02:32:11;100334.38;;;25.70
45393;BMP280;31129;44.810;10.334;2023-07-22T02:34:37;100335.38;;;26.04
45393;BMP280;31129;44.810;10.334;2023-07-22T02:37:03;100337.72;;;26.07
45393;BMP280;31129;44.810;10.334;2023-07-22T02:39:29;100339.22;;;25.99
45393;BMP280;31129;44.810;10.334;2023-07-22T02:41:54;100348.78;;;26.15
45393;BMP280;31129;44.810;10.334;2023-07-22T02:44:20;100350.28;;;25.97
45393;BMP280;31129;44.810;10.334;2023-07-22T02:46:45;100357.94;;;25.96
45393;BMP280;31129;44.810;10.334;2023-07-22T02:49:11;100363.03;;;26.19
45393;BMP280;31129;44.810;10.334;2023-07-22T02:51:36;100357.44;;;26.09
45393;BMP280;31129;44.810;10.334;2023-07-22T02:54:02;100368.03;;;26.20
45393;BMP280;31129;44.810;10.334;2023-07-22T02:56:29;100368.50;;;26.07
45393;BMP280;31129;44.810;10.334;2023-07-22T02:58:54;100368.38;;;25.86
45393;BMP280;31129;44.810;10.334;2023-07-22T03:01:19;100372.44;;;26.23
45393;BMP280;31129;44.810;10.334;2023-07-22T03:03:45;100381.00;;;26.25
45393;BMP280;31129;44.810;10.334;2023-07-22T03:06:10;100375.25;;;25.95
45393;BMP280;31129;44.810;10.334;2023-07-22T03:08:36;100384.41;;;26.14
45393;BMP280;31129;44.810;10.334;2023-07-22T03:11:02;100385.56;;;26.21
45393;BMP280;31129;44.810;10.334;2023-07-22T03:13:29;100385.13;;;25.76
45393;BMP280;31129;44.810;10.334;2023-07-22T03:15:55;100386.75;;;25.79
45393;BMP280;31129;44.810;10.334;2023-07-22T03:18:20;100381.75;;;25.97
45393;BMP280;31129;44.810;10.334;2023-07-22T03:20:46;100387.63;;;26.11
45393;BMP280;31129;44.810;10.334;2023-07-22T03:23:11;100388.38;;;26.31
45393;BMP280;31129;44.810;10.334;2023-07-22T03:25:37;100387.38;;;26.07
45393;BMP280;31129;44.810;10.334;2023-07-22T03:28:04;100386.78;;;25.99
45393;BMP280;31129;44.810;10.334;2023-07-22T03:30:30;100384.09;;;26.01
45393;BMP280;31129;44.810;10.334;2023-07-22T03:32:55;100381.59;;;25.86
45393;BMP280;31129;44.810;10.334;2023-07-22T03:35:21;100393.41;;;26.03
45393;BMP280;31129;44.810;10.334;2023-07-22T03:37:46;100398.38;;;25.86
45393;BMP280;31129;44.810;10.334;2023-07-22T03:40:12;100400.03;;;25.98
45393;BMP280;31129;44.810;10.334;2023-07-22T03:42:53;100391.63;;;25.98
45393;BMP280;31129;44.810;10.334;2023-07-22T03:45:20;100390.44;;;25.92
45393;BMP280;31129;44.810;10.334;2023-07-22T03:47:47;100391.78;;;26.10
45393;BMP280;31129;44.810;10.334;2023-07-22T03:50:13;100393.09;;;25.70
45393;BMP280;31129;44.810;10.334;2023-07-22T03:52:39;100388.81;;;25.89
45393;BMP280;31129;44.810;10.334;2023-07-22T03:55:05;100397.63;;;25.75
45393;BMP280;31129;44.810;10.334;2023-07-22T03:57:31;100404.41;;;25.92
45393;BMP280;31129;44.810;10.334;2023-07-22T03:59:57;100407.34;;;25.84
45393;BMP280;31129;44.810;10.334;2023-07-22T04:02:23;100414.00;;;25.89
45393;BMP280;31129;44.810;10.334;2023-07-22T04:04:50;100412.50;;;25.88
45393;BMP280;31129;44.810;10.334;2023-07-22T04:07:15;100419.25;;;25.75
45393;BMP280;31129;44.810;10.334;2023-07-22T04:09:41;100415.31;;;25.88
45393;BMP280;31129;44.810;10.334;2023-07-22T04:12:07;100414.16;;;26.00
45393;BMP280;31129;44.810;10.334;2023-07-22T04:14:33;100416.94;;;25.81
45393;BMP280;31129;44.810;10.334;2023-07-22T04:16:58;100425.19;;;25.98
45393;BMP280;31129;44.810;10.334;2023-07-22T04:19:24;100426.94;;;25.94
45393;BMP280;31129;44.810;10.334;2023-07-22T04:21:49;100430.19;;;25.90
45393;BMP280;31129;44.810;10.334;2023-07-22T04:24:15;100432.84;;;25.98
45393;BMP280;31129;44.810;10.334;2023-07-22T04:26:42;100434.75;;;26.05
45393;BMP280;31129;44.810;10.334;2023-07-22T04:29:08;100432.84;;;25.88
45393;BMP280;31129;44.810;10.334;2023-07-22T04:31:35;100438.88;;;25.85
45393;BMP280;31129;44.810;10.334;2023-07-22T04:34:01;100433.00;;;26.00
45393;BMP280;31129;44.810;10.334;2023-07-22T04:36:26;100441.69;;;26.23
45393;BMP280;31129;44.810;10.334;2023-07-22T04:38:51;100445.38;;;26.35
45393;BMP280;31129;44.810;10.334;2023-07-22T04:41:17;100443.31;;;26.45
45393;BMP280;31129;44.810;10.334;2023-07-22T04:43:43;100441.97;;;26.37
45393;BMP280;31129;44.810;10.334;2023-07-22T04:46:08;100447.75;;;26.19
45393;BMP280;31129;44.810;10.334;2023-07-22T04:48:34;100458.06;;;26.27
45393;BMP280;31129;44.810;10.334;2023-07-22T04:51:00;100463.06;;;26.28
45393;BMP280;31129;44.810;10.334;2023-07-22T04:53:25;100464.84;;;26.43
45393;BMP280;31129;44.810;10.334;2023-07-22T04:55:51;100457.44;;;26.18
45393;BMP280;31129;44.810;10.334;2023-07-22T04:58:16;100454.22;;;26.12
45393;BMP280;31129;44.810;10.334;2023-07-22T05:00:42;100447.31;;;26.33
45393;BMP280;31129;44.810;10.334;2023-07-22T05:03:08;100454.66;;;26.38
45393;BMP280;31129;44.810;10.334;2023-07-22T05:05:33;100448.19;;;26.35
45393;BMP280;31129;44.810;10.334;2023-07-22T05:07:59;100439.19;;;26.27
45393;BMP280;31129;44.810;10.334;2023-07-22T05:10:24;100446.69;;;26.24
45393;BMP280;31129;44.810;10.334;2023-07-22T05:12:50;100445.81;;;26.51
45393;BMP280;31129;44.810;10.334;2023-07-22T05:15:16;100450.81;;;26.52
45393;BMP280;31129;44.810;10.334;2023-07-22T05:17:41;100450.09;;;26.52
45393;BMP280;31129;44.810;10.334;2023-07-22T05:20:07;100448.25;;;26.76
45393;BMP280;31129;44.810;10.334;2023-07-22T05:22:39;100454.06;;;26.58
45393;BMP280;31129;44.810;10.334;2023-07-22T05:25:06;100460.38;;;26.68
45393;BMP280;31129;44.810;10.334;2023-07-22T05:27:32;100465.22;;;26.87
45393;BMP280;31129;44.810;10.334;2023-07-22T05:29:58;100465.22;;;26.87
45393;BMP280;31129;44.810;10.334;2023-07-22T05:32:23;100469.22;;;26.55
45393;BMP280;31129;44.810;10.334;2023-07-22T05:34:48;100464.53;;;26.39
45393;BMP280;31129;44.810;10.334;2023-07-22T05:37:14;100466.09;;;25.94
45393;BMP280;31129;44.810;10.334;2023-07-22T05:39:39;100464.66;;;26.02
45393;BMP280;31129;44.810;10.334;2023-07-22T05:42:05;100458.19;;;26.09
45393;BMP280;31129;44.810;10.334;2023-07-22T05:44:31;100454.97;;;26.13
45393;BMP280;31129;44.810;10.334;2023-07-22T05:46:57;100464.38;;;26.17
45393;BMP280;31129;44.810;10.334;2023-07-22T05:49:22;100467.91;;;26.28
45393;BMP280;31129;44.810;10.334;2023-07-22T05:51:48;100471.75;;;26.13
45393;BMP280;31129;44.810;10.334;2023-07-22T05:54:13;100478.72;;;25.75
45393;BMP280;31129;44.810;10.334;2023-07-22T05:56:39;100479.66;;;25.97
45393;BMP280;31129;44.810;10.334;2023-07-22T05:59:05;100482.78;;;26.20
45393;BMP280;31129;44.810;10.334;2023-07-22T06:01:31;100491.03;;;26.38
45393;BMP280;31129;44.810;10.334;2023-07-22T06:03:56;100492.84;;;26.43
45393;BMP280;31129;44.810;10.334;2023-07-22T06:06:22;100491.19;;;26.40
45393;BMP280;31129;44.810;10.334;2023-07-22T06:08:47;100500.31;;;26.31
45393;BMP280;31129;44.810;10.334;2023-07-22T06:11:13;100509.44;;;26.21
45393;BMP280;31129;44.810;10.334;2023-07-22T06:13:38;100509.72;;;25.97
45393;BMP280;31129;44.810;10.334;2023-07-22T06:16:04;100508.28;;;26.15
45393;BMP280;31129;44.810;10.334;2023-07-22T06:18:29;100507.38;;;26.22
45393;BMP280;31129;44.810;10.334;2023-07-22T06:20:55;100495.75;;;26.35
45393;BMP280;31129;44.810;10.334;2023-07-22T06:23:20;100499.16;;;26.43
45393;BMP280;31129;44.810;10.334;2023-07-22T06:25:46;100490.28;;;26.37
45393;BMP280;31129;44.810;10.334;2023-07-22T06:28:11;100490.72;;;26.24
45393;BMP280;31129;44.810;10.334;2023-07-22T06:30:37;100488.78;;;25.98
45393;BMP280;31129;44.810;10.334;2023-07-22T06:33:02;100501.16;;;26.04
45393;BMP280;31129;44.810;10.334;2023-07-22T06:35:28;100510.59;;;25.99
45393;BMP280;31129;44.810;10.334;2023-07-22T06:37:53;100515.19;;;26.14
45393;BMP280;31129;44.810;10.334;2023-07-22T06:40:19;100507.41;;;26.32
45393;BMP280;31129;44.810;10.334;2023-07-22T06:42:44;100507.38;;;26.41
45393;BMP280;31129;44.810;10.334;2023-07-22T06:45:10;100510.97;;;26.42
45393;BMP280;31129;44.810;10.334;2023-07-22T06:47:35;100504.75;;;26.43
45393;BMP280;31129;44.810;10.334;2023-07-22T06:50:05;100514.47;;;26.33
45393;BMP280;31129;44.810;10.334;2023-07-22T06:52:31;100519.47;;;26.15
45393;BMP280;31129;44.810;10.334;2023-07-22T06:54:56;100517.72;;;26.39
45393;BMP280;31129;44.810;10.334;2023-07-22T06:57:22;100518.28;;;26.76
45393;BMP280;31129;44.810;10.334;2023-07-22T06:59:47;100527.28;;;26.93
45393;BMP280;31129;44.810;10.334;2023-07-22T07:02:16;100530.66;;;26.82
45393;BMP280;31129;44.810;10.334;2023-07-22T07:04:41;100531.25;;;26.90
45393;BMP280;31129;44.810;10.334;2023-07-22T07:07:07;100523.88;;;26.95
45393;BMP280;31129;44.810;10.334;2023-07-22T07:09:32;100524.78;;;26.78
45393;BMP280;31129;44.810;10.334;2023-07-22T07:11:57;100530.19;;;27.05
45393;BMP280;31129;44.810;10.334;2023-07-22T07:14:23;100535.25;;;26.87
45393;BMP280;31129;44.810;10.334;2023-07-22T07:16:49;100538.78;;;26.97
45393;BMP280;31129;44.810;10.334;2023-07-22T07:19:15;100529.84;;;27.20
45393;BMP280;31129;44.810;10.334;2023-07-22T07:21:40;100538.72;;;27.26
45393;BMP280;31129;44.810;10.334;2023-07-22T07:24:06;100542.28;;;27.07
45393;BMP280;31129;44.810;10.334;2023-07-22T07:26:31;100547.28;;;27.09
45393;BMP280;31129;44.810;10.334;2023-07-22T07:28:57;100544.31;;;27.16
45393;BMP280;31129;44.810;10.334;2023-07-22T07:31:22;100533.78;;;27.36
45393;BMP280;31129;44.810;10.334;2023-07-22T07:33:48;100541.91;;;27.42
45393;BMP280;31129;44.810;10.334;2023-07-22T07:36:13;100535.03;;;27.54
45393;BMP280;31129;44.810;10.334;2023-07-22T07:38:40;100540.31;;;27.70
45393;BMP280;31129;44.810;10.334;2023-07-22T07:41:06;100543.97;;;27.72
45393;BMP280;31129;44.810;10.334;2023-07-22T07:43:37;100545.34;;;27.61
45393;BMP280;31129;44.810;10.334;2023-07-22T07:46:22;100536.47;;;27.65
45393;BMP280;31129;44.810;10.334;2023-07-22T07:48:49;100530.31;;;27.57
45393;BMP280;31129;44.810;10.334;2023-07-22T07:51:15;100525.47;;;27.48
45393;BMP280;31129;44.810;10.334;2023-07-22T07:53:42;100527.34;;;27.55
45393;BMP280;31129;44.810;10.334;2023-07-22T07:56:09;100522.22;;;27.51
45393;BMP280;31129;44.810;10.334;2023-07-22T07:58:36;100523.88;;;27.76
45393;BMP280;31129;44.810;10.334;2023-07-22T08:01:02;100530.50;;;27.49
45393;BMP280;31129;44.810;10.334;2023-07-22T08:03:27;100538.06;;;27.37
45393;BMP280;31129;44.810;10.334;2023-07-22T08:05:53;100541.25;;;27.53
45393;BMP280;31129;44.810;10.334;2023-07-22T08:08:20;100535.66;;;27.53
45393;BMP280;31129;44.810;10.334;2023-07-22T08:10:46;100547.16;;;27.57
45393;BMP280;31129;44.810;10.334;2023-07-22T08:13:11;100536.47;;;27.34
45393;BMP280;31129;44.810;10.334;2023-07-22T08:15:37;100549.00;;;27.33
45393;BMP280;31129;44.810;10.334;2023-07-22T08:18:02;100550.41;;;27.53
45393;BMP280;31129;44.810;10.334;2023-07-22T08:20:30;100545.44;;;27.73
45393;BMP280;31129;44.810;10.334;2023-07-22T08:22:56;100542.47;;;27.81
45393;BMP280;31129;44.810;10.334;2023-07-22T08:25:21;100539.66;;;28.02
45393;BMP280;31129;44.810;10.334;2023-07-22T08:27:50;100536.00;;;27.99
45393;BMP280;31129;44.810;10.334;2023-07-22T08:30:15;100541.88;;;28.03
45393;BMP280;31129;44.810;10.334;2023-07-22T08:32:41;100549.63;;;28.14
45393;BMP280;31129;44.810;10.334;2023-07-22T08:35:06;100538.13;;;28.32
45393;BMP280;31129;44.810;10.334;2023-07-22T08:37:32;100540.75;;;28.39
45393;BMP280;31129;44.810;10.334;2023-07-22T08:39:58;100545.78;;;28.52
45393;BMP280;31129;44.810;10.334;2023-07-22T08:42:23;100542.53;;;28.68
45393;BMP280;31129;44.810;10.334;2023-07-22T08:44:56;100537.03;;;28.70
45393;BMP280;31129;44.810;10.334;2023-07-22T08:47:24;100536.75;;;28.54
45393;BMP280;31129;44.810;10.334;2023-07-22T08:49:52;100537.16;;;28.39
45393;BMP280;31129;44.810;10.334;2023-07-22T08:52:19;100531.59;;;28.50
45393;BMP280;31129;44.810;10.334;2023-07-22T08:54:45;100528.53;;;28.79
45393;BMP280;31129;44.810;10.334;2023-07-22T08:57:12;100526.59;;;28.93
45393;BMP280;31129;44.810;10.334;2023-07-22T08:59:38;100522.50;;;29.06
45393;BMP280;31129;44.810;10.334;2023-07-22T09:02:04;100523.31;;;28.97
45393;BMP280;31129;44.810;10.334;2023-07-22T09:04:30;100530.44;;;29.21
45393;BMP280;31129;44.810;10.334;2023-07-22T09:06:56;100529.84;;;29.34
45393;BMP280;31129;44.810;10.334;2023-07-22T09:09:24;100530.06;;;29.27
45393;BMP280;31129;44.810;10.334;2023-07-22T09:11:50;100528.22;;;29.43
45393;BMP280;31129;44.810;10.334;2023-07-22T09:14:18;100529.69;;;29.44
45393;BMP280;31129;44.810;10.334;2023-07-22T09:16:44;100529.47;;;29.51
45393;BMP280;31129;44.810;10.334;2023-07-22T09:19:09;100527.38;;;29.29
45393;BMP280;31129;44.810;10.334;2023-07-22T09:21:35;100527.38;;;29.29
45393;BMP280;31129;44.810;10.334;2023-07-22T09:24:20;100530.19;;;29.40
45393;BMP280;31129;44.810;10.334;2023-07-22T09:26:45;100521.88;;;29.42
45393;BMP280;31129;44.810;10.334;2023-07-22T09:29:11;100528.22;;;29.54
45393;BMP280;31129;44.810;10.334;2023-07-22T09:31:48;100530.16;;;29.75
45393;BMP280;31129;44.810;10.334;2023-07-22T09:34:14;100529.06;;;29.69
45393;BMP280;31129;44.810;10.334;2023-07-22T09:36:57;100530.31;;;30.02
45393;BMP280;31129;44.810;10.334;2023-07-22T09:39:23;100532.94;;;29.98
45393;BMP280;31129;44.810;10.334;2023-07-22T09:41:49;100535.19;;;29.77
45393;BMP280;31129;44.810;10.334;2023-07-22T09:44:15;100536.66;;;29.78
45393;BMP280;31129;44.810;10.334;2023-07-22T09:46:41;100537.00;;;29.72
45393;BMP280;31129;44.810;10.334;2023-07-22T09:49:13;100535.41;;;29.81
45393;BMP280;31129;44.810;10.334;2023-07-22T09:51:39;100535.13;;;29.88
45393;BMP280;31129;44.810;10.334;2023-07-22T09:54:06;100526.56;;;29.98
45393;BMP280;31129;44.810;10.334;2023-07-22T09:56:32;100531.06;;;30.03
45393;BMP280;31129;44.810;10.334;2023-07-22T09:58:59;100520.84;;;30.21
45393;BMP280;31129;44.810;10.334;2023-07-22T10:01:28;100522.78;;;30.30
45393;BMP280;31129;44.810;10.334;2023-07-22T10:03:55;100502.53;;;30.34
45393;BMP280;31129;44.810;10.334;2023-07-22T10:06:26;100499.47;;;30.41
45393;BMP280;31129;44.810;10.334;2023-07-22T10:08:52;100499.69;;;30.59
45393;BMP280;31129;44.810;10.334;2023-07-22T10:11:18;100501.19;;;30.60
45393;BMP280;31129;44.810;10.334;2023-07-22T10:13:43;100498.47;;;30.62
45393;BMP280;31129;44.810;10.334;2023-07-22T10:16:10;100483.84;;;30.27
45393;BMP280;31129;44.810;10.334;2023-07-22T10:18:35;100478.50;;;30.19
45393;BMP280;31129;44.810;10.334;2023-07-22T10:21:02;100474.03;;;30.53
45393;BMP280;31129;44.810;10.334;2023-07-22T10:23:29;100470.41;;;30.64
45393;BMP280;31129;44.810;10.334;2023-07-22T10:25:57;100470.41;;;30.78
45393;BMP280;31129;44.810;10.334;2023-07-22T10:28:23;100470.28;;;30.76
45393;BMP280;31129;44.810;10.334;2023-07-22T10:30:51;100479.63;;;30.92
45393;BMP280;31129;44.810;10.334;2023-07-22T10:33:17;100490.81;;;31.03
45393;BMP280;31129;44.810;10.334;2023-07-22T10:35:47;100467.22;;;31.10
45393;BMP280;31129;44.810;10.334;2023-07-22T10:38:27;100471.78;;;30.77
45393;BMP280;31129;44.810;10.334;2023-07-22T10:40:53;100479.22;;;30.97
45393;BMP280;31129;44.810;10.334;2023-07-22T10:43:33;100466.56;;;30.85
45393;BMP280;31129;44.810;10.334;2023-07-22T10:46:06;100465.59;;;30.67
45393;BMP280;31129;44.810;10.334;2023-07-22T10:48:38;100474.81;;;30.81
45393;BMP280;31129;44.810;10.334;2023-07-22T10:51:12;100464.03;;;30.63
45393;BMP280;31129;44.810;10.334;2023-07-22T10:53:42;100465.41;;;30.90
45393;BMP280;31129;44.810;10.334;2023-07-22T11:06:37;100472.19;;;31.39
45393;BMP280;31129;44.810;10.334;2023-07-22T11:09:06;100472.09;;;31.51
45393;BMP280;31129;44.810;10.334;2023-07-22T11:11:49;100477.56;;;31.47
45393;BMP280;31129;44.810;10.334;2023-07-22T11:14:21;100486.41;;;31.55
45393;BMP280;31129;44.810;10.334;2023-07-22T11:16:47;100488.22;;;31.35
45393;BMP280;31129;44.810;10.334;2023-07-22T11:19:15;100492.50;;;31.36
45393;BMP280;31129;44.810;10.334;2023-07-22T11:21:45;100498.88;;;31.36
45393;BMP280;31129;44.810;10.334;2023-07-22T11:24:10;100487.78;;;31.40
45393;BMP280;31129;44.810;10.334;2023-07-22T11:26:37;100479.75;;;31.07
45393;BMP280;31129;44.810;10.334;2023-07-22T11:29:04;100489.28;;;31.14
45393;BMP280;31129;44.810;10.334;2023-07-22T11:31:31;100500.31;;;31.24
45393;BMP280;31129;44.810;10.334;2023-07-22T11:33:56;100476.91;;;31.35
45393;BMP280;31129;44.810;10.334;2023-07-22T11:36:22;100487.91;;;31.01
45393;BMP280;31129;44.810;10.334;2023-07-22T11:38:48;100480.75;;;30.73
45393;BMP280;31129;44.810;10.334;2023-07-22T11:41:14;100479.31;;;30.47
45393;BMP280;31129;44.810;10.334;2023-07-22T11:43:40;100494.66;;;30.19
45393;BMP280;31129;44.810;10.334;2023-07-22T11:46:05;100501.34;;;29.88
45393;BMP280;31129;44.810;10.334;2023-07-22T11:48:31;100489.72;;;29.10
45393;BMP280;31129;44.810;10.334;2023-07-22T11:51:00;100485.25;;;28.28
45393;BMP280;31129;44.810;10.334;2023-07-22T11:53:26;100491.13;;;27.90
45393;BMP280;31129;44.810;10.334;2023-07-22T11:55:55;100505.16;;;27.38
45393;BMP280;31129;44.810;10.334;2023-07-22T11:58:26;100503.22;;;27.00
45393;BMP280;31129;44.810;10.334;2023-07-22T12:01:10;100470.97;;;26.80
45393;BMP280;31129;44.810;10.334;2023-07-22T12:03:36;100465.09;;;26.47
45393;BMP280;31129;44.810;10.334;2023-07-22T12:06:06;100506.97;;;26.74
45393;BMP280;31129;44.810;10.334;2023-07-22T12:08:33;100487.66;;;26.68
45393;BMP280;31129;44.810;10.334;2023-07-22T12:10:59;100486.94;;;26.29
45393;BMP280;31129;44.810;10.334;2023-07-22T12:13:25;100490.00;;;26.23
45393;BMP280;31129;44.810;10.334;2023-07-22T12:16:04;100456.16;;;26.29
45393;BMP280;31129;44.810;10.334;2023-07-22T12:18:46;100444.16;;;26.67
45393;BMP280;31129;44.810;10.334;2023-07-22T12:21:13;100458.03;;;26.55
45393;BMP280;31129;44.810;10.334;2023-07-22T12:23:39;100462.91;;;26.36
45393;BMP280;31129;44.810;10.334;2023-07-22T12:26:05;100487.19;;;26.81
45393;BMP280;31129;44.810;10.334;2023-07-22T12:28:31;100532.06;;;27.22
45393;BMP280;31129;44.810;10.334;2023-07-22T12:30:57;100538.06;;;26.68
45393;BMP280;31129;44.810;10.334;2023-07-22T12:33:26;100548.66;;;26.89
45393;BMP280;31129;44.810;10.334;2023-07-22T12:35:56;100539.03;;;27.01
45393;BMP280;31129;44.810;10.334;2023-07-22T12:38:21;100535.50;;;27.01
45393;BMP280;31129;44.810;10.334;2023-07-22T12:40:47;100530.75;;;27.23
45393;BMP280;31129;44.810;10.334;2023-07-22T12:43:12;100548.69;;;27.39
45393;BMP280;31129;44.810;10.334;2023-07-22T12:45:38;100539.53;;;27.79
45393;BMP280;31129;44.810;10.334;2023-07-22T12:48:03;100533.22;;;27.90
45393;BMP280;31129;44.810;10.334;2023-07-22T12:50:31;100528.34;;;27.90
45393;BMP280;31129;44.810;10.334;2023-07-22T12:52:59;100515.13;;;28.02
45393;BMP280;31129;44.810;10.334;2023-07-22T12:55:25;100516.41;;;28.11
45393;BMP280;31129;44.810;10.334;2023-07-22T12:57:51;100519.28;;;28.01
45393;BMP280;31129;44.810;10.334;2023-07-22T13:00:16;100515.53;;;28.62
45393;BMP280;31129;44.810;10.334;2023-07-22T13:02:42;100515.50;;;29.07
45393;BMP280;31129;44.810;10.334;2023-07-22T13:05:08;100512.41;;;29.73
45393;BMP280;31129;44.810;10.334;2023-07-22T13:07:33;100517.28;;;29.95
45393;BMP280;31129;44.810;10.334;2023-07-22T13:09:59;100518.66;;;29.71
45393;BMP280;31129;44.810;10.334;2023-07-22T13:12:32;100520.91;;;29.38
45393;BMP280;31129;44.810;10.334;2023-07-22T13:14:58;100526.81;;;30.39
45393;BMP280;31129;44.810;10.334;2023-07-22T13:17:23;100518.03;;;30.72
45393;BMP280;31129;44.810;10.334;2023-07-22T13:19:48;100500.75;;;31.04
45393;BMP280;31129;44.810;10.334;2023-07-22T13:22:14;100509.84;;;31.44
45393;BMP280;31129;44.810;10.334;2023-07-22T13:24:39;100500.47;;;31.82
45393;BMP280;31129;44.810;10.334;2023-07-22T13:27:06;100495.09;;;31.45
45393;BMP280;31129;44.810;10.334;2023-07-22T13:29:31;100492.47;;;31.63
45393;BMP280;31129;44.810;10.334;2023-07-22T13:31:57;100497.34;;;31.90
45393;BMP280;31129;44.810;10.334;2023-07-22T13:34:22;100498.53;;;32.00
45393;BMP280;31129;44.810;10.334;2023-07-22T13:36:48;100507.75;;;32.01
45393;BMP280;31129;44.810;10.334;2023-07-22T13:39:13;100503.50;;;32.15
45393;BMP280;31129;44.810;10.334;2023-07-22T13:41:39;100499.78;;;32.27
45393;BMP280;31129;44.810;10.334;2023-07-22T13:44:04;100502.72;;;32.44
45393;BMP280;31129;44.810;10.334;2023-07-22T13:46:30;100500.06;;;32.33
45393;BMP280;31129;44.810;10.334;2023-07-22T13:48:56;100500.00;;;32.31
45393;BMP280;31129;44.810;10.334;2023-07-22T13:51:21;100495.78;;;32.47